createdAt,value
2017-09-12T00:00:04.709Z,23.33
2017-09-12T00:02:33.853Z,28.00
2017-09-12T00:05:02.743Z,19.43
2017-09-12T00:07:32.451Z,24.27
2017-09-12T00:10:01.241Z,20.43
2017-09-12T00:12:31.159Z,22.10
2017-09-12T00:15:00.046Z,27.13
2017-09-12T00:17:29.145Z,20.50
2017-09-12T00:19:57.984Z,17.90
2017-09-12T00:22:26.925Z,17.10
2017-09-12T00:24:56.324Z,25.43
2017-09-12T00:27:26.728Z,24.80
2017-09-12T00:29:55.712Z,20.20
2017-09-12T00:32:24.440Z,19.37
2017-09-12T00:34:54.657Z,31.50
2017-09-12T00:37:23.549Z,23.43
2017-09-12T00:39:53.670Z,29.90
2017-09-12T00:42:24.202Z,21.73
2017-09-12T00:44:53.114Z,23.60
2017-09-12T00:47:21.979Z,22.40
2017-09-12T00:49:50.931Z,24.93
2017-09-12T00:52:19.965Z,22.10
2017-09-12T00:54:48.856Z,23.20
2017-09-12T00:57:19.038Z,22.80
2017-09-12T00:59:48.177Z,36.40
2017-09-12T01:02:17.175Z,27.07
2017-09-12T01:04:46.061Z,38.47
2017-09-12T01:07:14.957Z,18.70
2017-09-12T01:09:44.660Z,23.37
2017-09-12T01:12:14.068Z,28.20
2017-09-12T01:14:43.906Z,22.13
2017-09-12T01:17:13.688Z,21.50
2017-09-12T01:19:43.400Z,29.20
2017-09-12T01:22:12.495Z,30.07
2017-09-12T01:24:41.564Z,40.13
2017-09-12T01:27:11.476Z,30.17
2017-09-12T01:29:40.809Z,45.13
2017-09-12T01:32:09.904Z,34.77
2017-09-12T01:34:38.901Z,30.80
2017-09-12T01:37:08.610Z,40.70
2017-09-12T01:39:37.911Z,52.03
2017-09-12T01:42:07.993Z,48.10
2017-09-12T01:44:37.096Z,40.50
2017-09-12T01:47:07.243Z,40.47
2017-09-12T01:49:36.133Z,41.17
2017-09-12T01:52:05.024Z,33.03
2017-09-12T01:54:34.240Z,32.87
2017-09-12T01:57:04.770Z,34.30
2017-09-12T01:59:33.850Z,37.60
2017-09-12T02:02:02.913Z,32.33
2017-09-12T02:04:31.742Z,33.50
2017-09-12T02:07:00.631Z,48.87
2017-09-12T02:09:29.721Z,33.17
2017-09-12T02:11:58.509Z,41.17
2017-09-12T02:14:27.502Z,45.93
2017-09-12T02:16:57.417Z,34.47
2017-09-12T02:19:26.315Z,30.40
2017-09-12T02:21:56.026Z,39.57
2017-09-12T02:24:25.117Z,29.80
2017-09-12T02:26:54.113Z,42.00
2017-09-12T02:29:23.440Z,23.63
2017-09-12T02:31:52.505Z,28.73
2017-09-12T02:34:21.521Z,29.47
2017-09-12T02:36:50.394Z,27.70
2017-09-12T02:39:20.103Z,30.20
2017-09-12T02:41:49.815Z,30.60
2017-09-12T02:44:18.704Z,33.23
2017-09-12T02:46:47.898Z,28.67
2017-09-12T02:49:16.687Z,25.17
2017-09-12T02:51:45.577Z,31.83
2017-09-12T02:54:15.288Z,21.97
2017-09-12T02:56:44.384Z,35.30
2017-09-12T02:59:13.482Z,24.67
2017-09-12T03:01:43.327Z,18.37
2017-09-12T03:04:12.311Z,16.73
2017-09-12T03:06:41.994Z,19.60
2017-09-12T03:09:11.297Z,28.67
2017-09-12T03:11:40.703Z,24.30
2017-09-12T03:14:09.691Z,24.70
2017-09-12T03:16:39.201Z,29.13
2017-09-12T03:19:08.236Z,28.37
2017-09-12T03:21:36.980Z,29.67
2017-09-12T03:24:05.870Z,32.17
2017-09-12T03:26:34.776Z,23.03
2017-09-12T03:29:03.560Z,43.57
2017-09-12T03:31:33.233Z,26.20
2017-09-12T03:34:02.223Z,20.53
2017-09-12T03:36:31.263Z,27.60
2017-09-12T03:39:00.448Z,17.20
2017-09-12T03:41:29.541Z,21.67
2017-09-12T03:43:58.450Z,24.33
2017-09-12T03:46:27.534Z,29.40
2017-09-12T03:48:56.619Z,26.60
2017-09-12T03:51:25.515Z,32.17
2017-09-12T03:53:54.409Z,23.37
2017-09-12T03:56:23.404Z,25.67
2017-09-12T03:58:52.500Z,27.47
2017-09-12T04:01:21.389Z,20.77
2017-09-12T04:03:50.585Z,27.03
2017-09-12T04:06:19.481Z,36.03
2017-09-12T04:08:48.577Z,18.60
2017-09-12T04:11:18.964Z,32.90
2017-09-12T04:13:48.027Z,44.33
2017-09-12T04:16:18.010Z,30.73
2017-09-12T04:18:48.118Z,28.47
2017-09-12T04:21:17.186Z,24.30
2017-09-12T04:23:47.359Z,30.00
2017-09-12T04:26:17.475Z,37.43
2017-09-12T04:28:46.742Z,27.73
2017-09-12T04:31:16.710Z,35.83
2017-09-12T04:33:45.989Z,24.97
2017-09-12T04:36:15.281Z,20.33
2017-09-12T04:38:44.300Z,25.60
2017-09-12T04:41:13.379Z,26.77
2017-09-12T04:43:43.289Z,29.10
2017-09-12T04:46:12.285Z,23.90
2017-09-12T04:48:42.809Z,25.03
2017-09-12T04:51:12.499Z,30.37
2017-09-12T04:53:41.592Z,21.00
2017-09-12T04:56:10.507Z,25.77
2017-09-12T04:58:39.606Z,32.20
2017-09-12T05:01:09.226Z,31.17
2017-09-12T05:03:39.163Z,21.43
2017-09-12T05:06:08.985Z,21.97
2017-09-12T05:08:40.166Z,24.00
2017-09-12T05:11:11.428Z,31.23
2017-09-12T05:13:41.325Z,21.50
2017-09-12T05:16:10.545Z,26.90
2017-09-12T05:18:40.477Z,27.70
2017-09-12T05:21:10.099Z,29.30
2017-09-12T05:23:41.008Z,32.97
2017-09-12T05:26:11.216Z,35.07
2017-09-12T05:28:41.774Z,31.13
2017-09-12T05:31:12.625Z,26.73
2017-09-12T05:33:41.921Z,21.33
2017-09-12T05:36:12.045Z,23.63
2017-09-12T05:38:44.205Z,32.73
2017-09-12T05:41:13.644Z,23.13
2017-09-12T05:43:43.809Z,26.43
2017-09-12T05:46:12.803Z,29.27
2017-09-12T05:48:41.698Z,19.47
2017-09-12T05:51:11.760Z,26.93
2017-09-12T05:53:41.087Z,19.03
2017-09-12T05:56:10.634Z,23.63
2017-09-12T05:58:39.712Z,26.33
2017-09-12T06:01:09.946Z,36.93
2017-09-12T06:03:38.829Z,27.93
2017-09-12T06:06:07.925Z,27.27
2017-09-12T06:08:37.196Z,32.83
2017-09-12T06:11:06.117Z,27.03
2017-09-12T06:13:36.035Z,30.37
2017-09-12T06:16:05.229Z,37.13
2017-09-12T06:18:34.233Z,31.00
2017-09-12T06:21:03.318Z,39.80
2017-09-12T06:23:33.335Z,45.00
2017-09-12T06:26:02.486Z,34.07
2017-09-12T06:28:31.424Z,35.30
2017-09-12T06:31:00.417Z,33.57
2017-09-12T06:33:30.324Z,32.03
2017-09-12T06:36:04.860Z,31.97
2017-09-12T06:38:41.421Z,32.47
2017-09-12T06:41:13.412Z,31.43
2017-09-12T06:43:43.961Z,30.63
2017-09-12T06:46:13.740Z,38.03
2017-09-12T06:48:43.901Z,36.83
2017-09-12T06:51:13.852Z,40.63
2017-09-12T06:53:43.278Z,36.10
2017-09-12T06:56:12.504Z,35.60
2017-09-12T06:58:42.904Z,39.63
2017-09-12T07:01:12.094Z,35.63
2017-09-12T07:03:40.988Z,37.07
2017-09-12T07:06:10.368Z,32.23
2017-09-12T07:08:39.284Z,41.10
2017-09-12T07:11:08.991Z,32.40
2017-09-12T07:13:38.288Z,33.03
2017-09-12T07:16:07.101Z,32.83
2017-09-12T07:18:36.385Z,28.50
2017-09-12T07:21:05.564Z,22.93
2017-09-12T07:23:34.448Z,39.23
2017-09-12T07:26:03.471Z,24.90
2017-09-12T07:28:32.770Z,23.80
2017-09-12T07:31:01.675Z,35.03
2017-09-12T07:33:31.602Z,24.90
2017-09-12T07:36:01.183Z,23.17
2017-09-12T07:38:30.276Z,29.77
2017-09-12T07:40:59.164Z,27.47
2017-09-12T07:43:28.792Z,28.87
2017-09-12T07:45:58.184Z,20.10
2017-09-12T07:48:27.086Z,30.63
2017-09-12T07:50:56.596Z,27.07
2017-09-12T07:53:26.340Z,22.50
2017-09-12T07:55:55.278Z,18.33
2017-09-12T07:58:24.525Z,21.13
2017-09-12T08:00:53.612Z,27.33
2017-09-12T08:03:23.470Z,22.30
2017-09-12T08:05:52.300Z,25.63
2017-09-12T08:08:21.180Z,34.43
2017-09-12T08:10:50.475Z,27.00
2017-09-12T08:13:20.076Z,24.60
2017-09-12T08:15:49.435Z,32.20
2017-09-12T08:18:18.777Z,30.57
2017-09-12T08:20:48.096Z,30.77
2017-09-12T08:23:17.377Z,24.03
2017-09-12T08:25:46.344Z,24.97
2017-09-12T08:28:15.797Z,26.50
2017-09-12T08:30:45.068Z,25.60
2017-09-12T08:33:14.292Z,25.98
2017-09-12T08:35:43.348Z,29.40
2017-09-12T08:38:13.185Z,32.73
2017-09-12T08:40:43.610Z,29.47
2017-09-12T08:43:13.846Z,25.77
2017-09-12T08:45:44.004Z,32.43
2017-09-12T08:48:14.220Z,26.27
2017-09-12T08:50:44.099Z,25.27
2017-09-12T08:53:13.504Z,21.47
2017-09-12T08:55:43.561Z,32.97
2017-09-12T08:58:14.458Z,25.17
2017-09-12T09:00:43.737Z,24.83
2017-09-12T09:03:14.347Z,32.10
2017-09-12T09:05:44.618Z,27.67
2017-09-12T09:08:14.845Z,30.57
2017-09-12T09:10:46.063Z,21.57
2017-09-12T09:13:17.643Z,22.70
2017-09-12T09:15:47.553Z,22.13
2017-09-12T09:18:17.929Z,25.83
2017-09-12T09:20:48.141Z,17.93
2017-09-12T09:23:17.756Z,28.93
2017-09-12T09:25:47.298Z,23.30
2017-09-12T09:28:16.332Z,19.30
2017-09-12T09:30:47.184Z,25.90
2017-09-12T09:33:23.027Z,27.07
2017-09-12T09:35:55.096Z,27.90
2017-09-12T09:38:24.436Z,30.77
2017-09-12T09:40:53.449Z,42.70
2017-09-12T09:43:23.284Z,29.80
2017-09-12T09:45:52.604Z,17.07
2017-09-12T09:48:22.173Z,29.20
2017-09-12T09:50:51.822Z,28.73
2017-09-12T09:53:21.645Z,22.03
2017-09-12T09:55:51.000Z,22.73
2017-09-12T09:58:20.961Z,24.17
2017-09-12T10:00:50.035Z,23.70
2017-09-12T10:03:19.960Z,30.47
2017-09-12T10:05:49.957Z,23.70
2017-09-12T10:08:19.284Z,29.07
2017-09-12T10:10:48.437Z,23.93
2017-09-12T10:13:17.852Z,35.43
2017-09-12T10:15:47.241Z,25.30
2017-09-12T10:18:17.331Z,24.93
2017-09-12T10:20:46.565Z,26.67
2017-09-12T10:23:16.149Z,23.30
2017-09-12T10:25:45.585Z,21.10
2017-09-12T10:28:16.320Z,25.57
2017-09-12T10:30:46.223Z,20.07
2017-09-12T10:33:16.904Z,27.17
2017-09-12T10:35:46.149Z,24.03
2017-09-12T10:38:15.562Z,28.70
2017-09-12T10:40:45.851Z,22.07
2017-09-12T10:43:15.176Z,33.97
2017-09-12T10:45:44.720Z,23.13
2017-09-12T10:48:14.097Z,16.03
2017-09-12T10:50:43.831Z,7.47
2017-09-12T10:53:14.200Z,16.53
2017-09-12T10:55:43.640Z,13.17
2017-09-12T10:58:13.130Z,16.90
2017-09-12T11:00:44.308Z,11.50
2017-09-12T11:03:13.684Z,20.60
2017-09-12T11:05:43.234Z,16.67
2017-09-12T11:08:12.901Z,13.60
2017-09-12T11:10:41.938Z,20.63
2017-09-12T11:13:12.327Z,17.60
2017-09-12T11:15:41.968Z,17.17
2017-09-12T11:18:11.680Z,21.93
2017-09-12T11:20:41.453Z,16.00
2017-09-12T11:23:10.641Z,20.80
2017-09-12T11:25:41.767Z,16.10
2017-09-12T11:28:11.304Z,12.73
2017-09-12T11:30:40.886Z,12.93
2017-09-12T11:33:11.971Z,12.93
2017-09-12T11:35:41.671Z,14.07
2017-09-12T11:38:13.245Z,13.60
2017-09-12T11:40:42.370Z,12.33
2017-09-12T11:43:11.524Z,13.33
2017-09-12T11:45:40.688Z,8.20
2017-09-12T11:48:09.820Z,17.90
2017-09-12T11:50:38.997Z,13.10
2017-09-12T11:53:08.198Z,10.47
2017-09-12T11:55:37.101Z,14.60
2017-09-12T11:58:07.737Z,16.87
2017-09-12T12:00:37.095Z,10.43
2017-09-12T12:03:06.085Z,13.87
2017-09-12T12:05:35.951Z,10.10
2017-09-12T12:08:06.226Z,8.77
2017-09-12T12:10:35.536Z,9.80
2017-09-12T12:13:04.927Z,13.27
2017-09-12T12:15:34.363Z,12.20
2017-09-12T12:18:03.578Z,9.87
2017-09-12T12:20:33.116Z,9.63
2017-09-12T12:23:02.362Z,10.97
2017-09-12T12:25:32.278Z,6.93
2017-09-12T12:28:02.275Z,11.77
2017-09-12T12:30:31.340Z,9.43
2017-09-12T12:33:01.609Z,9.73
2017-09-12T12:35:30.970Z,14.27
2017-09-12T12:38:01.137Z,11.63
2017-09-12T12:40:30.235Z,13.53
2017-09-12T12:42:59.569Z,9.97
2017-09-12T12:45:29.323Z,14.27
2017-09-12T12:47:59.006Z,16.97
2017-09-12T12:50:28.541Z,11.10
2017-09-12T12:52:57.557Z,9.60
2017-09-12T12:55:26.960Z,21.27
2017-09-12T12:57:56.876Z,6.97
2017-09-12T13:00:26.560Z,6.30
2017-09-12T13:02:55.475Z,10.60
2017-09-12T13:05:25.120Z,14.17
2017-09-12T13:07:55.916Z,7.27
2017-09-12T13:10:25.849Z,42.00
2017-09-12T13:12:54.653Z,10.60
2017-09-12T13:15:24.137Z,11.40
2017-09-12T13:17:53.749Z,9.43
2017-09-12T13:20:23.131Z,14.57
2017-09-12T13:22:51.925Z,10.03
2017-09-12T13:25:20.921Z,12.53
2017-09-12T13:27:50.047Z,12.63
2017-09-12T13:30:19.233Z,22.17
2017-09-12T13:32:48.237Z,13.37
2017-09-12T13:35:17.610Z,11.97
2017-09-12T13:37:47.934Z,11.10
2017-09-12T13:40:17.634Z,9.23
2017-09-12T13:42:47.020Z,13.20
2017-09-12T13:45:15.940Z,8.13
2017-09-12T13:47:45.444Z,10.13
2017-09-12T13:50:14.808Z,24.53
2017-09-12T13:52:43.909Z,20.97
2017-09-12T13:55:13.038Z,15.70
2017-09-12T13:57:42.110Z,13.43
2017-09-12T14:00:11.265Z,13.33
2017-09-12T14:02:46.978Z,11.47
2017-09-12T14:05:16.964Z,13.97
2017-09-12T14:07:46.894Z,18.40
2017-09-12T14:10:17.406Z,11.30
2017-09-12T14:12:48.180Z,9.23
2017-09-12T14:15:19.938Z,18.13
2017-09-12T14:17:52.033Z,15.47
2017-09-12T14:20:21.953Z,13.00
2017-09-12T14:22:51.217Z,8.70
2017-09-12T14:25:20.621Z,24.33
2017-09-12T14:27:49.711Z,19.40
2017-09-12T14:30:19.224Z,10.33
2017-09-12T14:32:48.432Z,10.63
2017-09-12T14:35:18.704Z,19.23
2017-09-12T14:37:47.609Z,7.37
2017-09-12T14:40:16.630Z,12.98
2017-09-12T14:42:45.626Z,10.20
2017-09-12T14:45:14.823Z,13.80
2017-09-12T14:47:43.792Z,21.70
2017-09-12T14:50:13.985Z,15.03
2017-09-12T14:52:43.651Z,14.73
2017-09-12T14:55:19.156Z,16.53
2017-09-12T14:57:48.284Z,14.60
2017-09-12T15:00:17.111Z,16.30
2017-09-12T15:02:47.197Z,19.43
2017-09-12T15:05:17.467Z,16.03
2017-09-12T15:07:47.639Z,21.00
2017-09-12T15:10:16.688Z,35.73
2017-09-12T15:12:46.069Z,11.87
2017-09-12T15:15:15.913Z,17.23
2017-09-12T15:17:45.134Z,21.50
2017-09-12T15:20:14.315Z,18.30
2017-09-12T15:22:43.656Z,23.37
2017-09-12T15:25:12.950Z,12.33
2017-09-12T15:27:43.185Z,14.03
2017-09-12T15:30:12.704Z,12.30
2017-09-12T15:32:42.246Z,11.70
2017-09-12T15:35:11.897Z,17.80
2017-09-12T15:37:41.754Z,27.60
2017-09-12T15:40:12.560Z,23.80
2017-09-12T15:42:41.638Z,14.50
2017-09-12T15:45:11.649Z,19.60
2017-09-12T15:47:41.682Z,16.30
2017-09-12T15:50:12.612Z,16.83
2017-09-12T15:52:42.489Z,15.33
2017-09-12T15:55:11.831Z,12.30
2017-09-12T15:57:41.716Z,21.73
2017-09-12T16:00:10.917Z,14.83
2017-09-12T16:02:40.197Z,17.87
2017-09-12T16:05:10.775Z,12.87
2017-09-12T16:07:40.782Z,16.33
2017-09-12T16:10:09.784Z,13.50
2017-09-12T16:12:39.263Z,17.17
2017-09-12T16:15:09.436Z,10.57
2017-09-12T16:17:39.376Z,16.17
2017-09-12T16:20:08.420Z,9.87
2017-09-12T16:22:37.515Z,16.10
2017-09-12T16:25:06.413Z,16.70
2017-09-12T16:27:35.703Z,17.43
2017-09-12T16:30:04.988Z,20.57
2017-09-12T16:32:34.285Z,16.63
2017-09-12T16:35:04.392Z,20.57
2017-09-12T16:37:33.583Z,15.57
2017-09-12T16:40:02.913Z,14.07
2017-09-12T16:42:33.355Z,15.73
2017-09-12T16:45:02.459Z,18.43
2017-09-12T16:47:32.569Z,19.93
2017-09-12T16:50:03.370Z,23.03
2017-09-12T16:52:32.780Z,18.17
2017-09-12T16:55:03.140Z,15.13
2017-09-12T16:57:34.821Z,13.93
2017-09-12T17:00:05.587Z,15.17
2017-09-12T17:02:35.018Z,27.70
2017-09-12T17:05:06.117Z,14.83
2017-09-12T17:07:35.579Z,14.37
2017-09-12T17:10:05.337Z,14.90
2017-09-12T17:12:37.536Z,16.30
2017-09-12T17:15:09.232Z,17.93
2017-09-12T17:17:40.139Z,22.17
2017-09-12T17:20:10.810Z,29.40
2017-09-12T17:22:41.506Z,19.30
2017-09-12T17:25:12.382Z,14.30
2017-09-12T17:27:43.238Z,18.50
2017-09-12T17:30:14.172Z,18.90
2017-09-12T17:32:46.137Z,17.93
2017-09-12T17:35:16.795Z,27.57
2017-09-12T17:37:48.438Z,16.60
2017-09-12T17:40:21.464Z,20.60
2017-09-12T17:42:51.999Z,18.80
2017-09-12T17:45:22.170Z,18.93
2017-09-12T17:47:52.592Z,25.63
2017-09-12T17:50:22.111Z,21.47
2017-09-12T17:52:52.355Z,22.87
2017-09-12T17:55:26.708Z,18.50
2017-09-12T17:57:57.231Z,20.60
2017-09-12T18:00:26.892Z,16.50
2017-09-12T18:02:56.804Z,15.73
2017-09-12T18:05:26.555Z,25.83
2017-09-12T18:07:57.058Z,25.80
2017-09-12T18:10:26.808Z,21.73
2017-09-12T18:12:56.860Z,19.23
2017-09-12T18:15:27.807Z,22.03
2017-09-12T18:17:57.984Z,22.00
2017-09-12T18:20:28.264Z,20.40
2017-09-12T18:23:08.497Z,23.87
2017-09-12T18:25:49.299Z,35.63
2017-09-12T18:28:22.510Z,14.90
2017-09-12T18:30:52.252Z,25.53
2017-09-12T18:33:22.590Z,25.20
2017-09-12T18:35:51.971Z,16.83
2017-09-12T18:38:21.853Z,22.90
2017-09-12T18:40:52.184Z,30.87
2017-09-12T18:43:22.337Z,16.93
2017-09-12T18:45:52.083Z,23.80
2017-09-12T18:48:21.835Z,26.00
2017-09-12T18:50:53.154Z,15.40
2017-09-12T18:53:24.188Z,22.10
2017-09-12T18:55:57.735Z,18.60
2017-09-12T18:58:27.380Z,18.67
2017-09-12T19:00:59.223Z,27.50
2017-09-12T19:03:28.757Z,16.03
2017-09-12T19:05:58.964Z,30.10
2017-09-12T19:08:31.776Z,25.43
2017-09-12T19:11:04.024Z,24.10
2017-09-12T19:13:34.649Z,35.23
2017-09-12T19:16:04.640Z,23.03
2017-09-12T19:18:34.843Z,27.13
2017-09-12T19:21:15.200Z,31.10
2017-09-12T19:23:46.877Z,17.93
2017-09-12T19:26:20.361Z,24.80
2017-09-12T19:28:57.730Z,23.07
2017-09-12T19:31:31.047Z,20.60
2017-09-12T19:34:05.538Z,22.20
2017-09-12T19:36:39.669Z,20.50
2017-09-12T19:39:12.156Z,19.80
2017-09-12T19:41:44.863Z,12.87
2017-09-12T19:44:16.917Z,21.20
2017-09-12T19:46:46.900Z,23.57
2017-09-12T19:49:17.697Z,26.93
2017-09-12T19:51:49.165Z,31.47
2017-09-12T19:54:20.077Z,25.77
2017-09-12T19:56:50.093Z,26.13
2017-09-12T19:59:20.190Z,27.57
2017-09-12T20:01:50.091Z,21.07
2017-09-12T20:04:20.751Z,20.43
2017-09-12T20:06:50.870Z,28.33
2017-09-12T20:09:21.674Z,22.73
2017-09-12T20:11:54.357Z,24.17
2017-09-12T20:14:25.816Z,23.17
2017-09-12T20:16:56.486Z,21.13
2017-09-12T20:19:26.678Z,19.33
2017-09-12T20:21:57.924Z,16.90
2017-09-12T20:24:30.323Z,18.83
2017-09-12T20:27:17.665Z,19.43
2017-09-12T20:29:52.072Z,15.50
2017-09-12T20:32:23.130Z,19.30
2017-09-12T20:34:59.534Z,18.10
2017-09-12T20:37:31.328Z,16.03
2017-09-12T20:40:16.309Z,22.70
2017-09-12T20:42:54.692Z,26.70
2017-09-12T20:45:26.903Z,39.23
2017-09-12T20:47:56.342Z,23.37
2017-09-12T20:50:26.208Z,21.07
2017-09-12T20:52:56.604Z,23.17
2017-09-12T20:55:27.714Z,22.73
2017-09-12T20:57:59.037Z,23.20
2017-09-12T21:00:28.297Z,21.00
2017-09-12T21:03:05.722Z,26.63
2017-09-12T21:05:37.966Z,25.93
2017-09-12T21:08:08.079Z,22.17
2017-09-12T21:10:39.454Z,19.97
2017-09-12T21:13:12.349Z,32.90
2017-09-12T21:15:57.017Z,24.30
2017-09-12T21:18:38.292Z,31.73
2017-09-12T21:21:20.342Z,14.87
2017-09-12T21:24:08.130Z,17.53
2017-09-12T21:26:46.885Z,24.43
2017-09-12T21:29:27.711Z,29.97
2017-09-12T21:32:01.211Z,22.10
2017-09-12T21:34:34.318Z,21.23
2017-09-12T21:37:10.105Z,24.23
2017-09-12T21:39:41.881Z,21.17
2017-09-12T21:42:13.464Z,22.43
2017-09-12T21:44:49.494Z,25.10
2017-09-12T21:47:22.922Z,24.83
2017-09-12T21:50:05.733Z,22.60
2017-09-12T21:55:27.219Z,30.57
2017-09-12T21:57:57.709Z,22.93
2017-09-12T22:00:30.187Z,23.10
2017-09-12T22:03:00.331Z,18.57
2017-09-12T22:05:32.052Z,26.43
2017-09-12T22:08:01.935Z,26.70
2017-09-12T22:10:31.337Z,19.50
2017-09-12T22:13:00.674Z,15.93
2017-09-12T22:15:30.138Z,25.00
2017-09-12T22:18:00.080Z,19.80
2017-09-12T22:20:29.864Z,19.70
2017-09-12T22:22:59.952Z,22.60
2017-09-12T22:25:30.033Z,22.47
2017-09-12T22:27:59.384Z,18.23
2017-09-12T22:30:28.752Z,17.40
2017-09-12T22:32:58.159Z,21.13
2017-09-12T22:35:27.847Z,28.97
2017-09-12T22:37:57.763Z,18.70
2017-09-12T22:40:28.372Z,19.45
2017-09-12T22:42:57.862Z,43.03
2017-09-12T22:45:27.637Z,16.20
2017-09-12T22:47:57.821Z,21.70
2017-09-12T22:50:27.130Z,21.77
2017-09-12T22:52:57.040Z,18.77
2017-09-12T22:55:26.143Z,16.90
2017-09-12T22:57:56.297Z,18.23
2017-09-12T23:00:25.865Z,24.50
2017-09-12T23:02:56.499Z,26.83
2017-09-12T23:05:26.170Z,24.37
2017-09-12T23:07:55.920Z,23.07
2017-09-12T23:10:26.057Z,12.87
2017-09-12T23:12:55.955Z,24.93
2017-09-12T23:15:25.390Z,20.07
2017-09-12T23:17:54.897Z,15.23
2017-09-12T23:20:23.854Z,17.83
2017-09-12T23:22:52.941Z,15.83
2017-09-12T23:25:22.308Z,19.47
2017-09-12T23:27:51.767Z,18.70
2017-09-12T23:30:22.348Z,23.70
2017-09-12T23:32:51.268Z,20.70
2017-09-12T23:35:20.982Z,19.63
2017-09-12T23:37:49.870Z,23.90
2017-09-12T23:40:18.771Z,20.57
2017-09-12T23:42:47.651Z,19.67
2017-09-12T23:45:16.952Z,16.57
2017-09-12T23:47:46.869Z,22.17
2017-09-12T23:50:16.386Z,19.90
2017-09-12T23:52:45.264Z,26.10
2017-09-12T23:55:14.360Z,16.57
2017-09-12T23:57:43.249Z,18.33
